Chester le Street, United Kingdom
Current Conditions -  °F | °C
As of 7:20 PM on Thursday 27 Nov 2014 (Local Time) from EGNT Reporting Station
Haze Haze  
Wind Chill: 48°   Ceiling: 300
Heat Index: 48°   Visibility: 3mi
Dew Point: 48°   Wind: 2mph
Humidity: 100%   Direction: NA
Pressure: 29.59"   Gusts: NA
Location:  54.9°N, 1.58°W
Report Text: EGNT 271920Z VRB02KT 5000 BR BKN003 09/09 Q1002
Loading
Personal Weather Stations






























Interactive Weather Map New forecast layout! Learn more

10-Day Weather Forecast

Advertisements
Track Severe Weather on mobile